createdAt,value
2022-08-31T00:00:31.149Z,0.90
2022-08-31T00:03:17.028Z,0.93
2022-08-31T00:08:11.044Z,0.90
2022-08-31T00:10:43.284Z,1.00
2022-08-31T00:13:13.645Z,1.27
2022-08-31T00:15:40.927Z,0.98
2022-08-31T00:18:07.849Z,0.90
2022-08-31T00:20:35.880Z,1.00
2022-08-31T00:23:10.784Z,0.85
2022-08-31T00:25:41.866Z,1.13
2022-08-31T00:28:10.762Z,1.02
2022-08-31T00:30:38.395Z,1.00
2022-08-31T00:33:06.005Z,1.25
2022-08-31T00:35:36.161Z,0.93
2022-08-31T00:38:05.200Z,0.73
2022-08-31T00:40:33.596Z,1.17
2022-08-31T00:43:11.585Z,0.80
2022-08-31T00:45:38.576Z,0.90
2022-08-31T00:48:05.610Z,1.20
2022-08-31T00:50:32.976Z,0.80
2022-08-31T00:53:01.732Z,1.02
2022-08-31T00:55:34.659Z,0.60
2022-08-31T00:58:07.581Z,0.80
2022-08-31T01:00:34.995Z,0.93
2022-08-31T01:03:04.155Z,0.98
2022-08-31T01:05:32.311Z,1.08
2022-08-31T01:08:00.708Z,1.00
2022-08-31T01:10:37.353Z,0.80
2022-08-31T01:13:06.193Z,1.10
2022-08-31T01:15:33.526Z,1.30
2022-08-31T01:18:04.449Z,1.30
2022-08-31T01:20:54.934Z,1.30
2022-08-31T01:23:45.298Z,1.75
2022-08-31T01:26:18.142Z,2.53
2022-08-31T01:28:47.764Z,1.60
2022-08-31T01:31:23.175Z,1.27
2022-08-31T01:33:50.962Z,1.45
2022-08-31T01:36:18.836Z,1.17
2022-08-31T01:38:46.305Z,2.20
2022-08-31T01:41:19.683Z,1.35
2022-08-31T01:43:46.602Z,0.98
2022-08-31T01:46:14.328Z,1.45
2022-08-31T01:48:44.294Z,0.88
2022-08-31T01:51:14.925Z,1.25
2022-08-31T01:53:45.705Z,1.45
2022-08-31T01:56:26.114Z,1.50
2022-08-31T01:58:54.296Z,1.10
2022-08-31T02:01:51.001Z,0.98
2022-08-31T02:04:20.998Z,1.00
2022-08-31T02:06:52.873Z,1.30
2022-08-31T02:09:22.270Z,1.27
2022-08-31T02:11:51.139Z,1.30
2022-08-31T02:14:19.509Z,1.10
2022-08-31T02:16:47.628Z,1.17
2022-08-31T02:19:17.712Z,0.90
2022-08-31T02:21:44.632Z,1.20
2022-08-31T02:24:12.377Z,1.45
2022-08-31T02:26:40.676Z,1.00
2022-08-31T02:29:08.609Z,0.90
2022-08-31T02:31:36.069Z,1.05
2022-08-31T02:34:03.561Z,1.50
2022-08-31T02:36:32.276Z,1.45
2022-08-31T02:39:02.637Z,1.10
2022-08-31T02:41:31.304Z,1.40
2022-08-31T02:43:58.254Z,0.95
2022-08-31T02:46:25.234Z,1.00
2022-08-31T02:49:03.972Z,0.90
2022-08-31T02:51:30.852Z,0.75
2022-08-31T02:53:58.005Z,1.10
2022-08-31T02:56:25.947Z,1.08
2022-08-31T02:58:55.253Z,0.98
2022-08-31T03:01:26.495Z,1.05
2022-08-31T03:03:53.485Z,1.10
2022-08-31T03:06:22.817Z,0.80
2022-08-31T03:08:50.571Z,0.80
2022-08-31T03:11:18.121Z,1.08
2022-08-31T03:13:45.470Z,1.10
2022-08-31T03:16:15.451Z,1.73
2022-08-31T03:18:42.552Z,0.98
2022-08-31T03:21:09.643Z,1.00
2022-08-31T03:23:37.593Z,0.60
2022-08-31T03:26:05.948Z,0.93
2022-08-31T03:28:34.782Z,1.70
2022-08-31T03:31:23.734Z,1.05
2022-08-31T03:33:50.911Z,1.17
2022-08-31T03:36:18.207Z,0.80
2022-08-31T03:38:45.176Z,0.98
2022-08-31T03:41:16.394Z,0.85
2022-08-31T03:43:44.299Z,0.98
2022-08-31T03:46:12.058Z,0.88
2022-08-31T03:48:42.285Z,0.82
2022-08-31T03:51:09.831Z,1.00
2022-08-31T03:53:37.342Z,1.00
2022-08-31T03:56:08.610Z,1.20
2022-08-31T03:58:39.115Z,0.90
2022-08-31T04:01:07.157Z,1.00
2022-08-31T04:03:52.781Z,0.80
2022-08-31T04:06:41.536Z,1.00
2022-08-31T04:09:27.037Z,0.80
2022-08-31T04:12:15.932Z,1.00
2022-08-31T04:15:02.362Z,1.00
2022-08-31T04:18:05.112Z,1.23
2022-08-31T04:20:47.491Z,0.70
2022-08-31T04:23:14.661Z,0.60
2022-08-31T04:25:52.136Z,0.80
2022-08-31T04:28:19.103Z,0.50
2022-08-31T04:30:46.729Z,0.70
2022-08-31T04:33:16.913Z,0.55
2022-08-31T04:35:44.541Z,0.70
2022-08-31T04:38:12.123Z,0.50
2022-08-31T04:40:42.810Z,0.60
2022-08-31T04:43:11.127Z,0.80
2022-08-31T04:45:46.167Z,1.00
2022-08-31T04:48:14.457Z,0.60
2022-08-31T04:50:43.227Z,0.57
2022-08-31T04:53:11.145Z,0.82
2022-08-31T04:55:42.250Z,0.40
2022-08-31T04:58:15.100Z,0.50
2022-08-31T05:00:44.023Z,0.63
2022-08-31T05:03:26.190Z,0.40
2022-08-31T05:05:55.377Z,0.50
2022-08-31T05:08:22.584Z,0.50
2022-08-31T05:10:49.814Z,0.60
2022-08-31T05:13:16.790Z,0.50
2022-08-31T05:15:44.578Z,0.60
2022-08-31T05:18:22.493Z,0.40
2022-08-31T05:20:55.658Z,0.65
2022-08-31T05:23:22.612Z,0.98
2022-08-31T05:25:49.938Z,0.70
2022-08-31T05:28:21.969Z,0.40
2022-08-31T05:30:48.952Z,0.50
2022-08-31T05:33:40.237Z,0.55
2022-08-31T05:36:07.927Z,0.50
2022-08-31T05:38:38.622Z,0.60
2022-08-31T05:41:07.763Z,0.60
2022-08-31T05:43:35.226Z,0.50
2022-08-31T05:46:10.288Z,0.50
2022-08-31T05:48:38.389Z,0.57
2022-08-31T05:51:15.222Z,0.40
2022-08-31T05:53:43.493Z,0.50
2022-08-31T05:56:21.843Z,0.50
2022-08-31T05:58:53.988Z,0.30
2022-08-31T06:01:33.463Z,0.70
2022-08-31T06:04:13.091Z,0.50
2022-08-31T06:06:41.443Z,0.45
2022-08-31T06:09:11.951Z,0.55
2022-08-31T06:11:42.194Z,0.50
2022-08-31T06:14:13.034Z,0.73
2022-08-31T06:16:44.868Z,0.40
2022-08-31T06:19:15.215Z,0.77
2022-08-31T06:21:49.280Z,0.55
2022-08-31T06:24:20.835Z,0.80
2022-08-31T06:26:58.345Z,0.50
2022-08-31T06:29:31.488Z,0.70
2022-08-31T06:32:00.465Z,0.60
2022-08-31T06:34:29.296Z,0.75
2022-08-31T06:37:06.659Z,0.47
2022-08-31T06:39:34.311Z,0.50
2022-08-31T06:42:16.553Z,0.40
2022-08-31T06:44:52.653Z,0.60
2022-08-31T06:47:24.200Z,0.60
2022-08-31T06:49:52.977Z,0.85
2022-08-31T06:52:21.099Z,0.90
2022-08-31T06:55:02.576Z,0.70
2022-08-31T06:57:48.562Z,0.75
2022-08-31T07:00:41.228Z,0.60
2022-08-31T07:03:39.036Z,0.98
2022-08-31T07:06:13.048Z,0.68
2022-08-31T07:08:41.234Z,0.75
2022-08-31T07:11:20.834Z,0.60
2022-08-31T07:13:48.756Z,1.17
2022-08-31T07:16:19.174Z,0.77
2022-08-31T07:18:47.895Z,0.60
2022-08-31T07:21:25.175Z,0.73
2022-08-31T07:23:54.424Z,0.80
2022-08-31T07:26:27.755Z,0.70
2022-08-31T07:28:57.199Z,0.60
2022-08-31T07:31:30.290Z,0.70
2022-08-31T07:33:57.318Z,0.95
2022-08-31T07:36:26.648Z,0.70
2022-08-31T07:39:14.869Z,0.47
2022-08-31T07:42:00.414Z,0.80
2022-08-31T07:44:27.762Z,0.88
2022-08-31T07:46:55.305Z,0.88
2022-08-31T07:49:24.335Z,0.70
2022-08-31T07:52:00.009Z,0.80
2022-08-31T07:54:46.186Z,1.10
2022-08-31T07:57:27.259Z,0.70
2022-08-31T08:00:08.655Z,0.70
2022-08-31T08:02:50.885Z,0.60
2022-08-31T08:05:27.709Z,1.00
2022-08-31T08:08:15.602Z,0.80
2022-08-31T08:11:03.302Z,0.90
2022-08-31T08:13:54.374Z,0.65
2022-08-31T08:19:07.183Z,0.80
2022-08-31T08:21:34.411Z,0.80
2022-08-31T08:24:02.305Z,0.70
2022-08-31T08:27:05.805Z,0.80
2022-08-31T08:29:46.475Z,0.75
2022-08-31T08:32:19.949Z,0.70
2022-08-31T08:34:47.175Z,0.80
2022-08-31T08:37:15.043Z,0.52
2022-08-31T08:39:43.135Z,0.52
2022-08-31T08:42:20.909Z,1.42
2022-08-31T08:44:48.244Z,0.85
2022-08-31T08:47:24.828Z,0.70
2022-08-31T08:50:05.350Z,0.93
2022-08-31T08:52:45.110Z,1.20
2022-08-31T08:55:22.218Z,1.15
2022-08-31T08:57:52.395Z,0.80
2022-08-31T09:00:25.046Z,1.45
2022-08-31T09:03:08.691Z,0.70
2022-08-31T09:06:09.693Z,1.10
2022-08-31T09:08:59.721Z,0.70
2022-08-31T09:11:57.922Z,1.05
2022-08-31T09:14:53.722Z,1.27
2022-08-31T09:17:46.867Z,1.02
2022-08-31T09:20:16.552Z,0.80
2022-08-31T09:22:53.184Z,0.82
2022-08-31T09:25:52.217Z,1.17
2022-08-31T09:28:48.350Z,0.80
2022-08-31T09:31:37.343Z,0.85
2022-08-31T09:34:31.290Z,0.90
2022-08-31T09:37:16.639Z,1.42
2022-08-31T09:39:49.887Z,0.93
2022-08-31T09:42:33.834Z,0.77
2022-08-31T09:45:18.477Z,0.85
2022-08-31T09:47:58.349Z,0.93
2022-08-31T09:50:28.480Z,0.75
2022-08-31T09:53:41.199Z,0.65
2022-08-31T09:56:16.345Z,0.85
2022-08-31T09:58:45.839Z,0.60
2022-08-31T10:01:45.777Z,1.60
2022-08-31T10:04:26.835Z,0.93
2022-08-31T10:07:26.038Z,0.80
2022-08-31T10:10:31.090Z,0.77
2022-08-31T10:13:15.415Z,0.75
2022-08-31T10:16:14.474Z,0.90
2022-08-31T10:19:01.986Z,0.80
2022-08-31T10:21:54.752Z,0.88
2022-08-31T10:24:39.495Z,0.75
2022-08-31T10:27:26.070Z,0.88
2022-08-31T10:30:05.869Z,0.70
2022-08-31T10:32:40.854Z,0.70
2022-08-31T10:35:19.662Z,0.55
2022-08-31T10:38:08.237Z,0.98
2022-08-31T10:41:04.166Z,0.80
2022-08-31T10:46:02.351Z,0.80
2022-08-31T10:48:29.395Z,0.80
2022-08-31T10:51:14.453Z,0.60
2022-08-31T10:54:22.039Z,0.52
2022-08-31T10:57:39.986Z,0.63
2022-08-31T11:00:34.773Z,0.80
2022-08-31T11:03:48.963Z,0.60
2022-08-31T11:06:47.882Z,0.85
2022-08-31T11:09:24.740Z,0.68
2022-08-31T11:12:07.465Z,0.57
2022-08-31T11:15:22.542Z,1.05
2022-08-31T11:17:55.571Z,0.60
2022-08-31T11:20:55.011Z,0.65
2022-08-31T11:24:07.658Z,0.73
2022-08-31T11:26:45.200Z,0.77
2022-08-31T11:29:36.230Z,1.17
2022-08-31T11:32:23.917Z,1.02
2022-08-31T11:34:55.326Z,0.70
2022-08-31T11:37:54.450Z,0.93
2022-08-31T11:40:55.761Z,0.68
2022-08-31T11:43:31.540Z,0.57
2022-08-31T11:46:28.844Z,1.40
2022-08-31T11:48:55.865Z,0.90
2022-08-31T11:51:58.340Z,0.65
2022-08-31T11:54:26.795Z,0.63
2022-08-31T11:56:57.327Z,0.40
2022-08-31T11:59:35.406Z,0.73
2022-08-31T12:02:20.563Z,0.70
2022-08-31T12:04:53.729Z,0.70
2022-08-31T12:07:39.189Z,0.70
2022-08-31T12:10:15.197Z,0.65
2022-08-31T12:13:40.556Z,0.70
2022-08-31T12:16:37.337Z,0.70
2022-08-31T12:19:49.937Z,0.68
2022-08-31T12:23:29.994Z,0.90
2022-08-31T12:26:45.130Z,1.30
2022-08-31T12:29:31.994Z,0.60
2022-08-31T12:32:17.119Z,0.68
2022-08-31T12:35:08.895Z,0.65
2022-08-31T12:37:38.331Z,1.35
2022-08-31T12:40:21.257Z,0.60
2022-08-31T12:43:10.873Z,0.73
2022-08-31T12:46:03.167Z,0.70
2022-08-31T12:49:10.626Z,0.40
2022-08-31T12:52:21.938Z,0.65
2022-08-31T12:55:23.605Z,0.60
2022-08-31T12:58:24.539Z,0.30
2022-08-31T13:00:51.648Z,1.25
2022-08-31T13:03:24.405Z,0.68
2022-08-31T13:06:13.720Z,0.70
2022-08-31T13:08:50.178Z,0.43
2022-08-31T13:11:40.762Z,0.40
2022-08-31T13:14:39.918Z,0.50
2022-08-31T13:17:18.465Z,0.50
2022-08-31T13:19:58.740Z,0.40
2022-08-31T13:22:42.847Z,0.70
2022-08-31T13:25:23.803Z,0.40
2022-08-31T13:27:52.748Z,0.55
2022-08-31T13:30:25.389Z,0.38
2022-08-31T13:32:54.826Z,0.45
2022-08-31T13:35:26.073Z,0.60
2022-08-31T13:38:05.124Z,0.60
2022-08-31T13:40:40.105Z,0.60
2022-08-31T13:43:10.070Z,0.50
2022-08-31T13:45:57.970Z,1.00
2022-08-31T13:48:34.147Z,0.73
2022-08-31T13:51:13.186Z,0.60
2022-08-31T13:53:45.944Z,0.60
2022-08-31T13:56:57.674Z,0.60
2022-08-31T13:59:40.946Z,0.50
2022-08-31T14:02:16.595Z,0.47
2022-08-31T14:04:48.808Z,0.50
2022-08-31T14:07:39.303Z,0.40
2022-08-31T14:10:31.924Z,0.57
2022-08-31T14:13:14.182Z,0.50
2022-08-31T14:16:03.000Z,0.40
2022-08-31T14:18:55.944Z,0.40
2022-08-31T14:21:29.878Z,0.60
2022-08-31T14:24:02.831Z,0.43
2022-08-31T14:26:41.718Z,0.50
2022-08-31T14:29:17.919Z,0.60
2022-08-31T14:31:56.231Z,0.85
2022-08-31T14:34:32.173Z,0.70
2022-08-31T14:37:19.843Z,0.60
2022-08-31T14:40:05.520Z,0.40
2022-08-31T14:42:37.968Z,0.50
2022-08-31T14:45:08.355Z,0.60
2022-08-31T14:47:42.622Z,0.50
2022-08-31T14:50:13.355Z,0.33
2022-08-31T14:52:46.222Z,0.32
2022-08-31T14:55:14.705Z,0.50
2022-08-31T14:57:47.060Z,0.50
2022-08-31T15:00:21.872Z,1.00
2022-08-31T15:02:53.211Z,0.40
2022-08-31T15:05:23.866Z,0.52
2022-08-31T15:07:53.454Z,0.43
2022-08-31T15:10:25.225Z,0.60
2022-08-31T15:12:53.517Z,0.43
2022-08-31T15:15:20.948Z,0.43
2022-08-31T15:17:52.047Z,0.50
2022-08-31T15:20:22.655Z,0.70
2022-08-31T15:22:50.324Z,0.30
2022-08-31T15:25:18.463Z,0.55
2022-08-31T15:27:45.486Z,0.50
2022-08-31T15:30:19.228Z,0.45
2022-08-31T15:32:48.040Z,1.42
2022-08-31T15:35:24.422Z,1.27
2022-08-31T15:37:58.597Z,0.40
2022-08-31T15:40:35.476Z,0.60
2022-08-31T15:43:09.311Z,0.90
2022-08-31T15:45:36.853Z,0.40
2022-08-31T15:48:43.074Z,0.43
2022-08-31T15:51:23.476Z,0.50
2022-08-31T15:54:11.974Z,0.43
2022-08-31T15:56:40.944Z,0.30
2022-08-31T15:59:10.050Z,1.08
2022-08-31T16:01:38.297Z,0.57
2022-08-31T16:04:06.914Z,0.40
2022-08-31T16:06:34.935Z,0.47
2022-08-31T16:09:04.477Z,0.52
2022-08-31T16:11:37.220Z,0.80
2022-08-31T16:14:05.566Z,1.00
2022-08-31T16:16:38.737Z,0.40
2022-08-31T16:19:08.809Z,0.47
2022-08-31T16:21:39.941Z,0.55
2022-08-31T16:24:09.646Z,0.40
2022-08-31T16:26:40.971Z,0.40
2022-08-31T16:29:13.075Z,0.57
2022-08-31T16:31:42.311Z,0.40
2022-08-31T16:34:09.644Z,0.47
2022-08-31T16:36:36.959Z,0.40
2022-08-31T16:39:04.133Z,0.65
2022-08-31T16:41:33.070Z,0.40
2022-08-31T16:44:19.000Z,0.70
2022-08-31T16:46:46.743Z,0.57
2022-08-31T16:49:32.365Z,0.45
2022-08-31T16:54:28.655Z,0.43
2022-08-31T16:56:57.620Z,0.73
2022-08-31T16:59:29.790Z,0.57
2022-08-31T17:01:57.192Z,0.40
2022-08-31T17:04:50.582Z,0.35
2022-08-31T17:07:14.690Z,0.55
2022-08-31T17:09:42.366Z,0.50
2022-08-31T17:12:14.156Z,0.80
2022-08-31T17:14:50.289Z,0.40
2022-08-31T17:17:23.969Z,0.40
2022-08-31T17:19:54.012Z,0.47
2022-08-31T17:22:29.911Z,0.38
2022-08-31T17:25:03.971Z,0.60
2022-08-31T17:27:33.480Z,0.93
2022-08-31T17:30:05.278Z,0.45
2022-08-31T17:32:32.458Z,0.50
2022-08-31T17:34:59.814Z,0.30
2022-08-31T17:37:36.083Z,0.82
2022-08-31T17:40:08.038Z,0.47
2022-08-31T17:42:35.725Z,0.40
2022-08-31T17:45:05.674Z,0.35
2022-08-31T17:47:33.226Z,0.30
2022-08-31T17:50:00.526Z,0.60
2022-08-31T17:52:28.185Z,0.35
2022-08-31T17:54:55.245Z,0.50
2022-08-31T17:57:26.223Z,0.43
2022-08-31T17:59:55.115Z,0.55
2022-08-31T18:02:27.587Z,0.60
2022-08-31T18:04:54.901Z,0.32
2022-08-31T18:07:21.851Z,0.95
2022-08-31T18:09:48.940Z,0.40
2022-08-31T18:12:16.900Z,0.60
2022-08-31T18:14:44.607Z,0.30
2022-08-31T18:17:16.103Z,0.50
2022-08-31T18:19:44.720Z,0.70
2022-08-31T18:22:14.113Z,0.73
2022-08-31T18:24:42.805Z,2.08
2022-08-31T18:27:15.078Z,5.32
2022-08-31T18:29:44.043Z,8.88
2022-08-31T18:32:11.979Z,9.18
2022-08-31T18:34:46.205Z,6.93
2022-08-31T18:37:14.988Z,3.47
2022-08-31T18:40:04.180Z,3.00
2022-08-31T18:42:52.415Z,3.80
2022-08-31T18:45:19.915Z,5.60
2022-08-31T18:48:21.271Z,4.25
2022-08-31T18:50:44.093Z,3.70
2022-08-31T18:53:15.041Z,3.72
2022-08-31T18:55:43.842Z,3.20
2022-08-31T18:58:11.246Z,2.10
2022-08-31T19:00:40.118Z,1.52
2022-08-31T19:03:07.565Z,2.40
2022-08-31T19:05:39.317Z,2.10
2022-08-31T19:08:06.290Z,1.40
2022-08-31T19:10:34.707Z,1.90
2022-08-31T19:13:07.328Z,1.95
2022-08-31T19:15:39.865Z,1.20
2022-08-31T19:18:07.776Z,1.00
2022-08-31T19:20:35.563Z,0.82
2022-08-31T19:23:02.660Z,0.75
2022-08-31T19:25:30.126Z,0.70
2022-08-31T19:27:57.006Z,0.90
2022-08-31T19:30:28.096Z,0.70
2022-08-31T19:32:56.550Z,0.40
2022-08-31T19:35:26.940Z,0.32
2022-08-31T19:37:56.157Z,0.50
2022-08-31T19:40:35.490Z,0.60
2022-08-31T19:45:50.903Z,0.50
2022-08-31T19:48:23.050Z,0.60
2022-08-31T19:50:50.245Z,0.68
2022-08-31T19:53:20.770Z,0.77
2022-08-31T19:55:51.502Z,0.40
2022-08-31T19:58:25.416Z,0.50
2022-08-31T20:01:00.588Z,0.68
2022-08-31T20:03:31.232Z,0.57
2022-08-31T20:05:59.616Z,0.60
2022-08-31T20:08:26.533Z,0.85
2022-08-31T20:10:53.516Z,0.70
2022-08-31T20:13:27.642Z,0.50
2022-08-31T20:15:56.030Z,0.80
2022-08-31T20:18:26.162Z,0.50
2022-08-31T20:20:54.981Z,0.45
2022-08-31T20:23:22.036Z,0.95
2022-08-31T20:25:51.149Z,0.60
2022-08-31T20:28:26.043Z,0.73
2022-08-31T20:30:58.977Z,0.60
2022-08-31T20:33:27.635Z,0.95
2022-08-31T20:35:54.566Z,0.45
2022-08-31T20:38:21.696Z,0.40
2022-08-31T20:40:53.026Z,0.30
2022-08-31T20:43:21.865Z,0.40
2022-08-31T20:45:50.252Z,0.52
2022-08-31T20:48:35.619Z,0.57
2022-08-31T20:51:21.253Z,0.70
2022-08-31T20:53:48.878Z,0.45
2022-08-31T20:56:18.319Z,0.85
2022-08-31T20:58:46.521Z,0.50
2022-08-31T21:01:16.004Z,0.60
2022-08-31T21:03:43.046Z,0.50
2022-08-31T21:06:14.474Z,0.70
2022-08-31T21:08:46.085Z,0.70
2022-08-31T21:11:16.602Z,0.40
2022-08-31T21:13:45.528Z,0.65
2022-08-31T21:16:17.851Z,0.52
2022-08-31T21:18:47.204Z,0.55
2022-08-31T21:21:16.462Z,0.50
2022-08-31T21:23:48.329Z,0.80
2022-08-31T21:26:21.569Z,0.30
2022-08-31T21:28:49.841Z,0.60
2022-08-31T21:31:28.504Z,0.50
2022-08-31T21:34:00.967Z,0.47
2022-08-31T21:36:29.511Z,0.50
2022-08-31T21:38:59.827Z,1.52
2022-08-31T21:41:28.949Z,0.60
2022-08-31T21:43:57.342Z,0.95
2022-08-31T21:46:28.111Z,0.52
2022-08-31T21:48:58.923Z,0.50
2022-08-31T21:51:33.483Z,0.60
2022-08-31T21:54:06.765Z,0.43
2022-08-31T21:56:40.517Z,1.17
2022-08-31T21:59:07.605Z,0.80
2022-08-31T22:01:35.317Z,0.50
2022-08-31T22:04:06.168Z,0.70
2022-08-31T22:06:34.654Z,0.43
2022-08-31T22:09:11.922Z,0.50
2022-08-31T22:11:45.559Z,0.68
2022-08-31T22:14:16.907Z,0.52
2022-08-31T22:16:46.505Z,0.60
2022-08-31T22:19:17.714Z,0.50
2022-08-31T22:21:49.301Z,0.88
2022-08-31T22:24:27.505Z,0.47
2022-08-31T22:26:57.972Z,0.70
2022-08-31T22:29:29.263Z,1.70
2022-08-31T22:32:00.961Z,0.60
2022-08-31T22:34:28.110Z,0.80
2022-08-31T22:36:56.653Z,1.83
2022-08-31T22:39:30.045Z,0.70
2022-08-31T22:41:59.149Z,0.73
2022-08-31T22:44:32.238Z,0.50
2022-08-31T22:46:59.267Z,0.50
2022-08-31T22:49:27.026Z,0.57
2022-08-31T22:51:54.457Z,0.52
2022-08-31T22:54:22.838Z,0.68
2022-08-31T22:56:50.048Z,0.50
2022-08-31T22:59:26.038Z,1.90
2022-08-31T23:01:56.916Z,0.70
2022-08-31T23:04:27.531Z,0.70
2022-08-31T23:06:56.996Z,0.80
2022-08-31T23:09:27.691Z,0.50
2022-08-31T23:11:56.465Z,0.70
2022-08-31T23:14:24.306Z,0.68
2022-08-31T23:16:57.014Z,0.70
2022-08-31T23:19:54.236Z,0.70
2022-08-31T23:22:24.529Z,1.13
2022-08-31T23:24:51.748Z,0.73
2022-08-31T23:27:21.661Z,0.65
2022-08-31T23:29:53.074Z,0.73
2022-08-31T23:32:23.368Z,0.60
2022-08-31T23:34:52.486Z,0.50
2022-08-31T23:37:25.621Z,0.68
2022-08-31T23:39:54.604Z,0.60
2022-08-31T23:42:24.450Z,0.60
2022-08-31T23:44:52.190Z,0.70
2022-08-31T23:47:26.820Z,0.45
2022-08-31T23:49:54.366Z,0.60
2022-08-31T23:52:28.185Z,0.70
2022-08-31T23:54:59.277Z,0.70
2022-08-31T23:57:33.127Z,0.70
